createdAt,value
2023-05-15T00:00:43.619Z,68.3599
2023-05-15T00:01:45.340Z,68.4836
2023-05-15T00:02:46.952Z,68.4870
2023-05-15T00:03:49.145Z,68.4329
2023-05-15T00:04:50.233Z,68.4403
2023-05-15T00:05:51.858Z,68.3835
2023-05-15T00:06:53.543Z,68.2790
2023-05-15T00:07:55.133Z,68.0180
2023-05-15T00:08:56.785Z,67.9697
2023-05-15T00:09:59.436Z,68.0599
2023-05-15T00:11:01.956Z,68.2722
2023-05-15T00:12:01.718Z,68.3870
2023-05-15T00:13:03.258Z,68.2695
2023-05-15T00:14:04.915Z,68.1827
2023-05-15T00:15:06.604Z,68.2322
2023-05-15T00:16:08.346Z,68.3604
2023-05-15T00:17:09.882Z,68.4593
2023-05-15T00:18:11.608Z,68.4998
2023-05-15T00:19:13.136Z,68.3917
2023-05-15T00:20:14.825Z,68.2984
2023-05-15T00:21:16.534Z,68.3472
2023-05-15T00:22:18.121Z,68.4834
2023-05-15T00:23:19.773Z,68.5794
2023-05-15T00:24:21.401Z,68.6457
2023-05-15T00:25:23.237Z,68.5755
2023-05-15T00:26:24.680Z,68.5773
2023-05-15T00:27:26.344Z,68.4983
2023-05-15T00:28:27.926Z,68.5338
2023-05-15T00:29:29.584Z,68.5931
2023-05-15T00:30:31.227Z,68.6244
2023-05-15T00:31:33.028Z,68.5968
2023-05-15T00:32:34.557Z,68.6673
2023-05-15T00:33:36.219Z,68.6949
2023-05-15T00:34:37.800Z,68.7271
2023-05-15T00:35:39.478Z,68.5640
2023-05-15T00:36:41.136Z,68.5483
2023-05-15T00:37:42.832Z,68.6682
2023-05-15T00:38:44.400Z,68.7475
2023-05-15T00:39:46.068Z,68.8441
2023-05-15T00:40:47.688Z,68.7959
2023-05-15T00:41:49.390Z,68.7039
2023-05-15T00:42:50.975Z,68.5924
2023-05-15T00:43:52.710Z,68.6279
2023-05-15T00:44:54.280Z,68.7409
2023-05-15T00:45:55.928Z,68.7303
2023-05-15T00:46:57.627Z,68.7839
2023-05-15T00:47:59.310Z,68.7903
2023-05-15T00:49:00.907Z,68.8258
2023-05-15T00:50:02.487Z,68.9476
2023-05-15T00:51:04.214Z,68.9281
2023-05-15T00:52:05.862Z,68.7244
2023-05-15T00:53:07.474Z,68.5594
2023-05-15T00:54:09.142Z,68.6171
2023-05-15T00:55:10.727Z,68.8013
2023-05-15T00:56:12.358Z,68.9085
2023-05-15T00:57:14.065Z,68.8909
2023-05-15T00:58:15.689Z,68.7446
2023-05-15T00:59:17.327Z,68.6773
2023-05-15T01:00:18.980Z,68.6874
2023-05-15T01:01:20.679Z,68.7681
2023-05-15T01:02:22.444Z,68.8831
2023-05-15T01:03:24.040Z,68.8994
2023-05-15T01:04:25.503Z,68.9453
2023-05-15T01:05:27.411Z,68.8879
2023-05-15T01:06:28.832Z,68.8192
2023-05-15T01:07:30.548Z,68.6996
2023-05-15T01:08:32.224Z,68.6075
2023-05-15T01:09:33.785Z,68.6008
2023-05-15T01:10:35.408Z,68.7462
2023-05-15T01:11:37.107Z,68.8968
2023-05-15T01:12:38.925Z,68.9353
2023-05-15T01:13:40.460Z,68.8855
2023-05-15T01:14:42.012Z,68.8595
2023-05-15T01:15:43.665Z,68.8978
2023-05-15T01:16:45.326Z,68.9614
2023-05-15T01:17:47.065Z,68.9581
2023-05-15T01:18:48.666Z,68.9123
2023-05-15T01:19:50.463Z,68.7348
2023-05-15T01:20:51.955Z,68.6589
2023-05-15T01:21:53.560Z,68.6652
2023-05-15T01:22:55.198Z,68.7671
2023-05-15T01:23:56.964Z,68.8036
2023-05-15T01:24:58.459Z,68.8676
2023-05-15T01:26:00.161Z,68.8232
2023-05-15T01:27:01.764Z,68.7258
2023-05-15T01:28:03.485Z,68.6621
2023-05-15T01:29:05.132Z,68.6711
2023-05-15T01:30:06.736Z,68.6651
2023-05-15T01:31:08.363Z,68.6415
2023-05-15T01:32:10.094Z,68.8092
2023-05-15T01:33:11.746Z,68.9610
2023-05-15T01:34:13.365Z,69.0630
2023-05-15T01:35:14.962Z,69.0685
2023-05-15T01:36:16.664Z,68.9829
2023-05-15T01:37:18.240Z,68.8345
2023-05-15T01:38:19.946Z,68.6563
2023-05-15T01:39:21.610Z,68.6849
2023-05-15T01:40:23.203Z,68.8266
2023-05-15T01:41:24.851Z,68.9246
2023-05-15T01:42:26.519Z,68.9518
2023-05-15T01:43:28.249Z,68.9190
2023-05-15T01:44:29.926Z,68.8184
2023-05-15T01:45:31.484Z,68.7580
2023-05-15T01:46:33.217Z,68.7155
2023-05-15T01:47:34.806Z,68.8286
2023-05-15T01:48:36.530Z,68.9147
2023-05-15T01:49:38.102Z,68.9624
2023-05-15T01:50:39.746Z,68.8405
2023-05-15T01:51:41.417Z,68.6888
2023-05-15T01:52:43.047Z,68.6809
2023-05-15T01:53:44.692Z,68.7849
2023-05-15T01:54:46.376Z,68.8462
2023-05-15T01:55:47.937Z,68.8443
2023-05-15T01:56:50.369Z,68.8193
2023-05-15T01:57:51.300Z,68.8203
2023-05-15T01:58:52.938Z,68.8044
2023-05-15T01:59:54.550Z,68.9023
2023-05-15T02:00:56.248Z,69.0071
2023-05-15T02:01:57.953Z,69.0941
2023-05-15T02:02:59.583Z,69.0558
2023-05-15T02:04:01.977Z,69.0166
2023-05-15T02:05:02.873Z,68.8443
2023-05-15T02:06:04.386Z,68.8257
2023-05-15T02:07:06.121Z,68.9263
2023-05-15T02:08:07.801Z,69.0363
2023-05-15T02:09:09.417Z,69.1188
2023-05-15T02:10:11.015Z,69.1185
2023-05-15T02:11:12.774Z,69.0473
2023-05-15T02:12:14.252Z,68.9059
2023-05-15T02:13:15.953Z,68.8758
2023-05-15T02:14:17.606Z,68.8097
2023-05-15T02:15:19.284Z,68.8012
2023-05-15T02:16:20.873Z,68.9938
2023-05-15T02:17:22.526Z,69.1244
2023-05-15T02:18:24.136Z,69.1792
2023-05-15T02:19:25.820Z,69.1578
2023-05-15T02:20:27.459Z,69.1330
2023-05-15T02:21:29.121Z,69.2081
2023-05-15T02:22:30.698Z,69.2738
2023-05-15T02:23:32.428Z,69.2725
2023-05-15T02:24:34.016Z,69.1738
2023-05-15T02:25:35.677Z,69.0714
2023-05-15T02:26:37.265Z,69.1169
2023-05-15T02:27:39.000Z,69.2319
2023-05-15T02:28:40.601Z,69.2496
2023-05-15T02:29:42.278Z,69.2864
2023-05-15T02:30:43.916Z,69.3185
2023-05-15T02:31:45.592Z,69.2372
2023-05-15T02:32:47.281Z,69.1942
2023-05-15T02:33:48.979Z,69.1026
2023-05-15T02:34:50.569Z,69.0080
2023-05-15T02:35:52.140Z,69.0603
2023-05-15T02:36:53.751Z,69.1737
2023-05-15T02:37:55.512Z,69.2290
2023-05-15T02:38:57.072Z,69.2168
2023-05-15T02:39:58.763Z,69.2110
2023-05-15T02:41:00.373Z,69.1233
2023-05-15T02:42:02.095Z,69.0080
2023-05-15T02:43:03.629Z,68.8872
2023-05-15T02:44:05.351Z,68.8961
2023-05-15T02:45:06.961Z,69.0572
2023-05-15T02:46:08.693Z,69.1316
2023-05-15T02:47:10.258Z,69.1403
2023-05-15T02:48:11.915Z,69.0427
2023-05-15T02:49:13.509Z,69.0075
2023-05-15T02:50:15.244Z,68.8409
2023-05-15T02:51:16.797Z,68.7232
2023-05-15T02:52:18.468Z,68.8087
2023-05-15T02:53:20.161Z,68.7746
2023-05-15T02:54:21.744Z,67.7970
2023-05-15T02:55:23.685Z,66.7861
2023-05-15T02:56:25.019Z,65.3040
2023-05-15T02:57:26.717Z,63.8070
2023-05-15T02:58:28.321Z,62.4696
2023-05-15T02:59:30.029Z,62.0145
2023-05-15T03:00:31.647Z,62.2468
2023-05-15T03:01:33.419Z,62.5596
2023-05-15T03:02:34.991Z,62.9018
2023-05-15T03:03:36.592Z,63.2360
2023-05-15T03:04:38.215Z,63.3966
2023-05-15T03:05:39.895Z,63.3514
2023-05-15T03:06:41.491Z,63.2105
2023-05-15T03:07:43.187Z,63.1274
2023-05-15T03:08:44.846Z,63.2284
2023-05-15T03:09:46.412Z,63.4359
2023-05-15T03:10:48.121Z,63.5579
2023-05-15T03:11:49.880Z,63.3444
2023-05-15T03:12:51.409Z,63.0164
2023-05-15T03:13:53.029Z,62.7919
2023-05-15T03:14:55.572Z,62.8985
2023-05-15T03:15:56.369Z,63.1458
2023-05-15T03:16:58.054Z,63.3916
2023-05-15T03:17:59.618Z,63.4212
2023-05-15T03:19:01.343Z,63.4521
2023-05-15T03:20:02.942Z,63.1455
2023-05-15T03:21:04.605Z,62.7002
2023-05-15T03:22:06.264Z,62.5280
2023-05-15T03:23:07.882Z,62.7110
2023-05-15T03:24:09.519Z,63.0268
2023-05-15T03:25:11.178Z,63.3069
2023-05-15T03:26:13.489Z,63.4311
2023-05-15T03:27:14.477Z,63.0473
2023-05-15T03:28:16.066Z,62.5524
2023-05-15T03:29:17.678Z,62.3295
2023-05-15T03:30:19.299Z,62.3756
2023-05-15T03:31:20.998Z,62.5486
2023-05-15T03:32:22.610Z,62.7531
2023-05-15T03:33:24.250Z,62.9316
2023-05-15T03:34:25.865Z,62.7264
2023-05-15T03:35:27.523Z,62.3426
2023-05-15T03:36:29.206Z,62.1727
2023-05-15T03:37:30.824Z,62.2666
2023-05-15T03:38:32.458Z,62.4277
2023-05-15T03:39:34.133Z,62.4891
2023-05-15T03:40:35.765Z,62.5663
2023-05-15T03:41:37.443Z,62.6242
2023-05-15T03:42:39.095Z,62.5903
2023-05-15T03:43:40.710Z,62.4234
2023-05-15T03:44:42.358Z,62.1323
2023-05-15T03:45:43.967Z,61.9907
2023-05-15T03:46:46.513Z,62.1756
2023-05-15T03:47:47.329Z,62.3557
2023-05-15T03:48:48.920Z,62.2601
2023-05-15T03:49:50.556Z,62.2265
2023-05-15T03:50:52.203Z,62.2914
2023-05-15T03:51:53.881Z,62.3710
2023-05-15T03:52:55.500Z,62.3629
2023-05-15T03:53:57.159Z,62.2362
2023-05-15T03:55:01.414Z,62.2758
2023-05-15T03:56:00.482Z,62.2321
2023-05-15T03:57:02.116Z,62.2060
2023-05-15T03:58:03.737Z,62.3295
2023-05-15T03:59:05.395Z,62.5120
2023-05-15T04:00:07.130Z,62.3751
2023-05-15T04:01:08.640Z,62.2814
2023-05-15T04:02:10.469Z,62.2746
2023-05-15T04:03:12.130Z,62.2832
2023-05-15T04:04:13.613Z,62.2967
2023-05-15T04:05:15.309Z,62.3767
2023-05-15T04:06:16.936Z,62.3023
2023-05-15T04:07:18.562Z,62.2727
2023-05-15T04:08:20.177Z,62.1829
2023-05-15T04:09:21.859Z,62.1717
2023-05-15T04:10:23.583Z,62.2011
2023-05-15T04:11:25.099Z,62.1907
2023-05-15T04:12:26.823Z,62.1763
2023-05-15T04:13:28.358Z,62.1102
2023-05-15T04:14:30.031Z,62.1125
2023-05-15T04:15:31.708Z,62.0990
2023-05-15T04:16:33.372Z,62.0026
2023-05-15T04:17:35.060Z,61.9597
2023-05-15T04:18:36.662Z,62.0582
2023-05-15T04:19:38.886Z,61.6784
2023-05-15T04:20:39.881Z,61.5977
2023-05-15T04:21:41.556Z,61.6064
2023-05-15T04:22:43.235Z,61.6403
2023-05-15T04:23:47.431Z,61.7079
2023-05-15T04:24:46.511Z,61.6731
2023-05-15T04:25:48.123Z,61.6904
2023-05-15T04:26:50.856Z,61.9341
2023-05-15T04:27:51.448Z,61.9208
2023-05-15T04:29:03.536Z,61.8967
2023-05-15T04:29:54.726Z,61.8731
2023-05-15T04:30:56.375Z,61.8960
2023-05-15T04:31:58.088Z,61.7871
2023-05-15T04:33:00.505Z,61.8403
2023-05-15T04:34:01.311Z,61.9769
2023-05-15T04:35:02.922Z,61.8446
2023-05-15T04:36:04.645Z,61.7473
2023-05-15T04:37:06.216Z,61.8608
2023-05-15T04:38:07.932Z,61.9733
2023-05-15T04:39:09.536Z,61.9006
2023-05-15T04:40:11.196Z,61.5033
2023-05-15T04:41:12.788Z,61.6144
2023-05-15T04:42:14.485Z,61.8356
2023-05-15T04:43:16.117Z,61.9655
2023-05-15T04:44:17.761Z,61.9596
2023-05-15T04:45:19.410Z,61.9350
2023-05-15T04:46:21.080Z,61.8222
2023-05-15T04:47:22.750Z,61.9093
2023-05-15T04:48:24.375Z,61.9008
2023-05-15T04:49:25.982Z,61.9198
2023-05-15T04:50:27.611Z,61.8769
2023-05-15T04:51:29.273Z,61.9352
2023-05-15T04:52:30.927Z,61.7924
2023-05-15T04:53:32.560Z,61.4125
2023-05-15T04:54:34.251Z,60.9408
2023-05-15T04:55:36.374Z,60.3524
2023-05-15T04:56:37.477Z,59.5410
2023-05-15T04:57:39.137Z,59.0059
2023-05-15T04:58:40.841Z,57.8904
2023-05-15T04:59:42.442Z,57.4438
2023-05-15T05:00:44.085Z,57.0782
2023-05-15T05:01:46.438Z,56.1787
2023-05-15T05:02:47.402Z,55.5086
2023-05-15T05:03:49.435Z,55.2209
2023-05-15T05:04:50.703Z,55.1037
2023-05-15T05:05:52.314Z,55.0990
2023-05-15T05:06:54.009Z,55.3644
2023-05-15T05:07:55.582Z,54.5942
2023-05-15T05:08:57.422Z,54.5618
2023-05-15T05:09:58.884Z,54.9266
2023-05-15T05:11:00.533Z,54.4925
2023-05-15T05:12:02.140Z,54.1476
2023-05-15T05:13:03.840Z,54.1052
2023-05-15T05:14:05.470Z,54.2641
2023-05-15T05:15:07.100Z,54.2725
2023-05-15T05:16:08.761Z,54.0452
2023-05-15T05:17:10.430Z,53.8618
2023-05-15T05:18:12.014Z,53.3570
2023-05-15T05:19:13.856Z,54.3573
2023-05-15T05:20:15.877Z,54.2668
2023-05-15T05:21:16.972Z,54.2404
2023-05-15T05:22:18.578Z,53.9730
2023-05-15T05:23:20.261Z,53.4914
2023-05-15T05:24:21.894Z,53.5780
2023-05-15T05:25:23.660Z,54.0815
2023-05-15T05:26:25.146Z,53.6259
2023-05-15T05:27:27.382Z,53.4301
2023-05-15T05:28:28.440Z,53.4841
2023-05-15T05:29:30.410Z,53.1507
2023-05-15T05:30:31.715Z,54.0609
2023-05-15T05:31:33.463Z,53.7402
2023-05-15T05:32:35.094Z,53.4754
2023-05-15T05:33:36.914Z,53.4037
2023-05-15T05:34:39.420Z,53.3157
2023-05-15T05:35:40.163Z,53.4541
2023-05-15T05:36:41.721Z,54.0667
2023-05-15T05:37:43.379Z,53.4653
2023-05-15T05:38:45.030Z,53.3949
2023-05-15T05:39:46.808Z,53.8124
2023-05-15T05:40:49.184Z,53.4599
2023-05-15T05:41:50.818Z,54.1303
2023-05-15T05:42:51.513Z,54.0693
2023-05-15T05:43:53.186Z,53.7304
2023-05-15T05:44:55.503Z,53.5918
2023-05-15T05:45:56.509Z,53.6154
2023-05-15T05:46:58.192Z,54.1555
2023-05-15T05:47:59.921Z,54.1011
2023-05-15T05:49:01.476Z,53.4978
2023-05-15T05:50:03.229Z,53.3375
2023-05-15T05:51:04.748Z,53.4945
2023-05-15T05:52:06.402Z,53.2132
2023-05-15T05:53:08.090Z,54.1886
2023-05-15T05:54:09.692Z,53.4511
2023-05-15T05:55:11.327Z,53.3823
2023-05-15T05:56:12.958Z,53.4636
2023-05-15T05:57:14.599Z,53.5701
2023-05-15T05:58:24.901Z,53.8812
2023-05-15T05:59:17.900Z,54.3146
2023-05-15T06:00:19.601Z,54.5212
2023-05-15T06:01:21.173Z,54.2239
2023-05-15T06:02:23.624Z,54.3184
2023-05-15T06:03:25.012Z,53.8174
2023-05-15T06:04:26.170Z,54.6999
2023-05-15T06:05:27.771Z,54.2380
2023-05-15T06:06:29.412Z,53.8094
2023-05-15T06:07:31.084Z,54.0460
2023-05-15T06:08:32.754Z,53.7030
2023-05-15T06:09:34.365Z,54.3766
2023-05-15T06:10:36.009Z,55.2345
2023-05-15T06:11:37.662Z,54.5868
2023-05-15T06:12:39.271Z,54.6166
2023-05-15T06:13:40.927Z,54.3800
2023-05-15T06:14:42.559Z,54.1666
2023-05-15T06:15:44.229Z,54.2383
2023-05-15T06:16:45.872Z,54.1232
2023-05-15T06:17:47.546Z,54.1090
2023-05-15T06:18:49.270Z,54.0388
2023-05-15T06:19:50.808Z,54.1962
2023-05-15T06:20:53.065Z,53.9601
2023-05-15T06:21:54.022Z,54.6638
2023-05-15T06:22:55.743Z,54.3122
2023-05-15T06:23:57.351Z,53.9530
2023-05-15T06:24:58.990Z,53.8897
2023-05-15T06:26:00.659Z,54.1925
2023-05-15T06:27:02.318Z,54.0038
2023-05-15T06:28:03.942Z,54.5976
2023-05-15T06:29:05.622Z,54.2238
2023-05-15T06:30:07.214Z,54.3909
2023-05-15T06:31:08.931Z,54.4714
2023-05-15T06:32:10.507Z,54.7870
2023-05-15T06:33:13.227Z,54.0607
2023-05-15T06:34:13.730Z,54.6424
2023-05-15T06:35:15.488Z,54.6156
2023-05-15T06:36:17.125Z,54.0948
2023-05-15T06:37:18.722Z,54.1210
2023-05-15T06:38:20.369Z,54.2235
2023-05-15T06:39:22.036Z,54.8522
2023-05-15T06:40:23.770Z,54.9949
2023-05-15T06:41:25.291Z,54.7123
2023-05-15T06:42:26.956Z,54.2628
2023-05-15T06:43:28.627Z,54.6239
2023-05-15T06:44:30.220Z,54.0299
2023-05-15T06:45:31.885Z,54.8157
2023-05-15T06:46:33.567Z,54.9620
2023-05-15T06:47:35.247Z,54.6073
2023-05-15T06:48:36.782Z,54.2864
2023-05-15T06:49:38.404Z,54.6117
2023-05-15T06:50:40.178Z,54.1042
2023-05-15T06:51:41.739Z,55.0971
2023-05-15T06:52:43.393Z,55.1194
2023-05-15T06:53:45.830Z,54.5930
2023-05-15T06:54:46.663Z,54.2896
2023-05-15T06:55:48.332Z,54.7592
2023-05-15T06:56:49.988Z,54.3566
2023-05-15T06:57:51.572Z,55.5565
2023-05-15T06:58:53.216Z,55.7191
2023-05-15T06:59:54.835Z,55.1151
2023-05-15T07:00:56.970Z,54.7232
2023-05-15T07:01:59.070Z,54.6734
2023-05-15T07:02:59.857Z,54.7936
2023-05-15T07:04:01.423Z,55.5629
2023-05-15T07:05:04.228Z,55.1081
2023-05-15T07:06:04.837Z,54.6099
2023-05-15T07:07:06.384Z,54.5968
2023-05-15T07:08:08.090Z,54.1845
2023-05-15T07:09:09.668Z,55.1715
2023-05-15T07:10:11.321Z,55.6224
2023-05-15T07:11:13.008Z,54.5467
2023-05-15T07:12:14.658Z,54.2207
2023-05-15T07:13:16.297Z,54.5158
2023-05-15T07:14:17.877Z,53.9793
2023-05-15T07:15:19.521Z,55.1556
2023-05-15T07:16:21.152Z,55.2261
2023-05-15T07:17:22.862Z,54.8883
2023-05-15T07:18:24.590Z,54.9894
2023-05-15T07:19:26.177Z,54.7089
2023-05-15T07:20:30.922Z,54.3644
2023-05-15T07:21:29.603Z,55.1472
2023-05-15T07:22:32.750Z,55.0396
2023-05-15T07:23:32.696Z,54.8037
2023-05-15T07:24:34.280Z,54.3845
2023-05-15T07:25:35.982Z,54.5183
2023-05-15T07:26:43.876Z,54.4613
2023-05-15T07:27:39.261Z,55.7223
2023-05-15T07:28:40.949Z,55.3680
2023-05-15T07:29:42.522Z,54.9456
2023-05-15T07:30:44.257Z,54.7213
2023-05-15T07:31:45.941Z,54.3783
2023-05-15T07:32:47.426Z,54.6045
2023-05-15T07:33:49.136Z,55.6149
2023-05-15T07:34:50.738Z,54.7659
2023-05-15T07:35:52.456Z,54.1230
2023-05-15T07:36:55.093Z,54.0216
2023-05-15T07:37:55.665Z,53.7234
2023-05-15T07:38:57.450Z,54.8112
2023-05-15T07:39:59.575Z,55.5082
2023-05-15T07:41:00.734Z,55.3058
2023-05-15T07:42:02.283Z,54.7537
2023-05-15T07:43:04.562Z,54.6269
2023-05-15T07:44:05.535Z,54.0180
2023-05-15T07:45:07.213Z,55.2808
2023-05-15T07:46:08.875Z,55.1081
2023-05-15T07:47:10.538Z,54.5676
2023-05-15T07:48:12.192Z,54.3504
2023-05-15T07:49:13.744Z,54.0011
2023-05-15T07:50:15.413Z,54.0402
2023-05-15T07:51:17.050Z,55.5076
2023-05-15T07:52:18.683Z,55.6480
2023-05-15T07:53:20.303Z,54.8636
2023-05-15T07:54:22.453Z,54.5830
2023-05-15T07:55:23.646Z,54.4478
2023-05-15T07:56:25.201Z,54.6626
2023-05-15T07:57:26.880Z,55.0224
2023-05-15T07:58:28.530Z,54.4538
2023-05-15T07:59:30.184Z,54.2926
2023-05-15T08:00:31.776Z,54.3712
2023-05-15T08:01:33.440Z,53.8392
2023-05-15T08:02:35.165Z,54.9001
2023-05-15T08:03:36.769Z,55.7651
2023-05-15T08:04:38.456Z,54.8656
2023-05-15T08:05:40.014Z,54.7863
2023-05-15T08:06:42.658Z,54.7367
2023-05-15T08:07:44.126Z,53.9478
2023-05-15T08:08:44.935Z,55.3229
2023-05-15T08:09:46.572Z,55.3245
2023-05-15T08:10:48.205Z,54.8776
2023-05-15T08:11:49.896Z,54.6794
2023-05-15T08:12:51.550Z,54.3887
2023-05-15T08:13:53.206Z,54.5317
2023-05-15T08:14:54.775Z,55.4537
2023-05-15T08:15:56.488Z,55.1539
2023-05-15T08:16:58.051Z,54.7337
2023-05-15T08:18:00.055Z,54.5107
2023-05-15T08:19:02.069Z,54.2500
2023-05-15T08:20:03.053Z,54.6874
2023-05-15T08:21:04.836Z,55.2269
2023-05-15T08:22:06.335Z,54.7445
2023-05-15T08:23:07.974Z,54.3521
2023-05-15T08:24:09.858Z,54.0607
2023-05-15T08:25:11.400Z,53.6728
2023-05-15T08:26:13.031Z,54.7937
2023-05-15T08:27:14.816Z,55.6159
2023-05-15T08:28:16.393Z,54.7653
2023-05-15T08:29:18.029Z,54.6878
2023-05-15T08:30:19.628Z,54.6621
2023-05-15T08:31:21.272Z,53.8426
2023-05-15T08:32:23.002Z,55.2786
2023-05-15T08:33:24.577Z,55.4103
2023-05-15T08:34:26.161Z,55.1534
2023-05-15T08:35:28.085Z,54.6226
2023-05-15T08:36:29.477Z,54.5224
2023-05-15T08:37:31.206Z,54.3206
2023-05-15T08:38:32.828Z,54.8747
2023-05-15T08:39:34.446Z,55.0924
2023-05-15T08:40:39.944Z,54.4254
2023-05-15T08:41:40.947Z,54.1645
2023-05-15T08:42:39.278Z,54.3319
2023-05-15T08:43:41.129Z,54.0464
2023-05-15T08:44:42.632Z,55.1954
2023-05-15T08:45:44.297Z,55.3115
2023-05-15T08:46:45.985Z,55.1706
2023-05-15T08:47:47.705Z,55.1635
2023-05-15T08:48:50.262Z,54.7888
2023-05-15T08:49:50.831Z,54.4567
2023-05-15T08:50:52.471Z,56.0582
2023-05-15T08:51:54.170Z,56.9301
2023-05-15T08:52:55.757Z,56.9602
2023-05-15T08:53:57.487Z,57.2263
2023-05-15T08:54:59.041Z,57.5398
2023-05-15T08:56:00.772Z,57.1568
2023-05-15T08:57:02.397Z,57.8984
2023-05-15T08:58:04.076Z,57.8906
2023-05-15T08:59:05.682Z,58.4119
2023-05-15T09:00:08.910Z,58.2307
2023-05-15T09:01:09.209Z,58.8566
2023-05-15T09:02:11.589Z,57.9688
2023-05-15T09:03:12.210Z,59.1914
2023-05-15T09:04:14.680Z,59.3166
2023-05-15T09:05:15.440Z,59.5495
2023-05-15T09:06:17.157Z,59.8594
2023-05-15T09:07:18.687Z,59.1085
2023-05-15T09:08:20.414Z,58.7241
2023-05-15T09:09:22.053Z,59.2273
2023-05-15T09:10:23.705Z,59.4795
2023-05-15T09:11:25.317Z,60.0634
2023-05-15T09:12:27.004Z,60.7742
2023-05-15T09:13:28.546Z,60.3968
2023-05-15T09:14:30.273Z,59.2887
2023-05-15T09:15:31.823Z,59.5662
2023-05-15T09:16:33.520Z,59.7705
2023-05-15T09:17:35.144Z,60.6810
2023-05-15T09:18:36.797Z,60.6812
2023-05-15T09:19:38.471Z,60.2515
2023-05-15T09:20:40.045Z,59.5352
2023-05-15T09:21:41.717Z,59.6467
2023-05-15T09:22:43.344Z,59.9353
2023-05-15T09:23:45.054Z,61.0018
2023-05-15T09:24:46.662Z,60.2752
2023-05-15T09:25:48.334Z,60.3663
2023-05-15T09:26:49.929Z,59.2900
2023-05-15T09:27:51.576Z,59.7411
2023-05-15T09:28:53.246Z,60.0404
2023-05-15T09:29:54.923Z,61.0907
2023-05-15T09:30:56.514Z,61.1973
2023-05-15T09:31:58.221Z,60.6984
2023-05-15T09:33:00.650Z,59.3337
2023-05-15T09:34:01.433Z,59.3153
2023-05-15T09:35:03.219Z,59.7361
2023-05-15T09:36:04.839Z,60.4488
2023-05-15T09:37:06.410Z,59.8689
2023-05-15T09:38:08.030Z,59.9464
2023-05-15T09:39:09.671Z,58.5124
2023-05-15T09:40:11.429Z,59.0046
2023-05-15T09:41:12.964Z,59.3741
2023-05-15T09:42:14.669Z,60.1195
2023-05-15T09:43:16.259Z,59.3233
2023-05-15T09:44:20.627Z,59.2501
2023-05-15T09:45:19.597Z,58.3307
2023-05-15T09:46:21.350Z,58.4369
2023-05-15T09:47:23.008Z,59.0598
2023-05-15T09:48:24.557Z,60.0365
2023-05-15T09:49:26.201Z,59.9264
2023-05-15T09:50:27.868Z,59.7534
2023-05-15T09:51:29.464Z,58.7247
2023-05-15T09:52:31.108Z,58.9239
2023-05-15T09:53:32.789Z,59.5577
2023-05-15T09:54:34.415Z,60.2087
2023-05-15T09:55:36.105Z,59.5254
2023-05-15T09:56:37.654Z,59.5995
2023-05-15T09:57:39.365Z,58.3311
2023-05-15T09:58:41.004Z,58.6788
2023-05-15T09:59:42.622Z,59.3566
2023-05-15T10:00:47.912Z,60.0022
2023-05-15T10:01:45.951Z,59.1834
2023-05-15T10:02:47.623Z,58.5291
2023-05-15T10:03:49.236Z,57.9801
2023-05-15T10:04:50.832Z,58.2667
2023-05-15T10:05:52.602Z,59.1845
2023-05-15T10:06:54.184Z,59.7501
2023-05-15T10:07:56.690Z,58.6399
2023-05-15T10:08:57.434Z,57.9799
2023-05-15T10:09:59.139Z,57.4858
2023-05-15T10:11:00.766Z,57.9811
2023-05-15T10:12:02.400Z,58.5882
2023-05-15T10:13:03.968Z,59.4248
2023-05-15T10:14:05.648Z,59.2895
2023-05-15T10:15:07.242Z,58.2383
2023-05-15T10:16:09.034Z,57.6580
2023-05-15T10:17:10.550Z,57.9617
2023-05-15T10:18:12.316Z,58.8337
2023-05-15T10:19:13.849Z,60.0730
2023-05-15T10:20:15.551Z,59.3491
2023-05-15T10:21:17.687Z,58.3977
2023-05-15T10:22:18.785Z,57.3910
2023-05-15T10:23:20.434Z,57.7507
2023-05-15T10:24:22.068Z,58.6379
2023-05-15T10:25:23.752Z,59.8911
2023-05-15T10:26:25.373Z,59.0702
2023-05-15T10:27:26.951Z,57.5250
2023-05-15T10:28:28.638Z,56.9597
2023-05-15T10:29:30.233Z,57.4984
2023-05-15T10:30:31.894Z,58.3176
2023-05-15T10:31:33.572Z,59.5736
2023-05-15T10:32:35.248Z,59.1989
2023-05-15T10:33:36.828Z,57.9021
2023-05-15T10:34:38.504Z,57.3407
2023-05-15T10:35:40.113Z,57.5036
2023-05-15T10:36:43.090Z,58.4445
2023-05-15T10:37:43.378Z,59.4667
2023-05-15T10:38:45.036Z,58.6349
2023-05-15T10:39:46.658Z,58.4627
2023-05-15T10:40:48.355Z,57.3992
2023-05-15T10:41:50.192Z,57.3904
2023-05-15T10:42:51.639Z,58.0677
2023-05-15T10:43:53.316Z,58.7579
2023-05-15T10:44:54.910Z,57.5445
2023-05-15T10:45:56.643Z,55.0372
2023-05-15T10:46:58.901Z,54.6385
2023-05-15T10:47:59.986Z,55.2988
2023-05-15T10:49:01.661Z,56.5167
2023-05-15T10:50:03.080Z,57.8389
2023-05-15T10:51:04.811Z,57.3783
2023-05-15T10:52:06.489Z,55.7348
2023-05-15T10:53:08.111Z,55.7274
2023-05-15T10:54:09.678Z,56.2353
2023-05-15T10:55:11.345Z,57.4847
2023-05-15T10:56:13.032Z,59.0319
2023-05-15T10:57:14.695Z,57.6735
2023-05-15T10:58:16.293Z,55.2640
2023-05-15T10:59:17.949Z,56.1548
2023-05-15T11:00:19.554Z,56.6514
2023-05-15T11:01:21.276Z,58.1644
2023-05-15T11:02:22.834Z,58.3729
2023-05-15T11:03:25.182Z,56.5984
2023-05-15T11:04:26.138Z,55.1389
2023-05-15T11:05:27.873Z,55.5357
2023-05-15T11:06:29.496Z,56.2291
2023-05-15T11:07:31.005Z,57.7056
2023-05-15T11:08:32.775Z,57.6624
2023-05-15T11:09:34.405Z,56.5134
2023-05-15T11:10:35.996Z,56.0350
2023-05-15T11:11:37.696Z,56.3794
2023-05-15T11:12:39.336Z,56.7547
2023-05-15T11:13:40.971Z,58.7065
2023-05-15T11:14:42.608Z,57.5817
2023-05-15T11:15:44.264Z,56.6509
2023-05-15T11:16:45.895Z,56.0368
2023-05-15T11:17:47.600Z,56.3684
2023-05-15T11:18:49.238Z,57.4214
2023-05-15T11:19:50.794Z,58.5558
2023-05-15T11:20:52.457Z,57.2224
2023-05-15T11:21:54.077Z,56.0617
2023-05-15T11:22:56.297Z,55.7655
2023-05-15T11:23:57.412Z,56.3742
2023-05-15T11:24:59.034Z,57.5172
2023-05-15T11:26:00.657Z,57.4781
2023-05-15T11:27:02.304Z,56.7145
2023-05-15T11:28:04.062Z,55.9949
2023-05-15T11:29:05.637Z,56.8532
2023-05-15T11:30:07.194Z,57.4715
2023-05-15T11:31:08.812Z,58.3288
2023-05-15T11:32:10.423Z,59.0982
2023-05-15T11:33:12.148Z,57.2944
2023-05-15T11:34:13.832Z,56.4533
2023-05-15T11:35:15.330Z,57.1384
2023-05-15T11:36:16.960Z,57.7411
2023-05-15T11:37:18.597Z,58.2724
2023-05-15T11:38:21.216Z,59.0893
2023-05-15T11:39:22.099Z,57.2573
2023-05-15T11:40:23.836Z,56.7532
2023-05-15T11:41:26.141Z,56.4164
2023-05-15T11:42:26.814Z,56.8854
2023-05-15T11:43:28.555Z,58.3365
2023-05-15T11:44:30.149Z,58.5159
2023-05-15T11:45:31.763Z,56.6026
2023-05-15T11:46:33.466Z,55.8571
2023-05-15T11:47:35.061Z,56.1384
2023-05-15T11:48:36.772Z,56.6408
2023-05-15T11:49:39.161Z,56.9049
2023-05-15T11:50:40.088Z,58.0118
2023-05-15T11:51:42.647Z,57.4532
2023-05-15T11:52:43.250Z,56.5450
2023-05-15T11:53:44.948Z,55.7571
2023-05-15T11:54:46.595Z,56.1363
2023-05-15T11:55:48.209Z,57.3925
2023-05-15T11:56:49.894Z,58.0744
2023-05-15T11:57:51.511Z,59.1244
2023-05-15T11:58:53.134Z,57.7539
2023-05-15T11:59:54.778Z,57.1127
2023-05-15T12:00:56.449Z,57.2750
2023-05-15T12:01:58.072Z,57.9700
2023-05-15T12:02:59.778Z,59.7434
2023-05-15T12:04:01.883Z,59.5757
2023-05-15T12:05:03.052Z,56.4864
2023-05-15T12:06:04.617Z,56.4081
2023-05-15T12:07:06.326Z,56.9206
2023-05-15T12:08:08.086Z,58.6594
2023-05-15T12:09:09.677Z,60.0267
2023-05-15T12:10:11.335Z,58.2356
2023-05-15T12:11:12.870Z,56.2290
2023-05-15T12:12:14.600Z,55.9312
2023-05-15T12:13:16.197Z,56.4672
2023-05-15T12:14:18.143Z,57.9738
2023-05-15T12:15:19.410Z,58.7247
2023-05-15T12:16:22.280Z,56.5061
2023-05-15T12:17:22.880Z,55.8160
2023-05-15T12:18:24.545Z,55.9866
2023-05-15T12:19:26.230Z,57.4037
2023-05-15T12:20:27.928Z,58.6380
2023-05-15T12:21:29.502Z,58.9975
2023-05-15T12:22:31.331Z,56.7822
2023-05-15T12:23:32.783Z,56.1185
2023-05-15T12:24:34.479Z,56.9060
2023-05-15T12:25:36.089Z,57.6865